Time;durP1;ratioP1;P1;durP2;ratioP2;P2;SDS_P1;SDS_P2;PMS_P1;PMS_P2;Temp;Humidity;BMP_temperature;BMP_pressure;BME280_temperature;BME280_humidity;BME280_pressure;Samples;Min_cycle;Max_cycle;Signal;HPM_P1;HPM_P2
2022/03/24 00:02:21;;;;;;;50.20;25.97;;;14.30;64.60;;;;;;6339084;22;20149;-92
2022/03/24 00:04:47;;;;;;;46.97;25.63;;;14.20;64.60;;;;;;6340104;22;20585;-93
2022/03/24 00:07:13;;;;;;;46.33;25.97;;;14.10;65.30;;;;;;6342716;22;20473;-93
2022/03/24 00:09:38;;;;;;;51.47;25.17;;;14.00;65.70;;;;;;6338892;22;20183;-91
2022/03/24 00:12:06;;;;;;;46.20;25.07;;;13.90;65.70;;;;;;6340067;22;20177;-88
2022/03/24 00:14:32;;;;;;;47.70;25.60;;;13.90;65.50;;;;;;6313808;22;20584;-88
2022/03/24 00:16:57;;;;;;;46.93;24.93;;;13.90;65.60;;;;;;6314273;22;20187;-91
2022/03/24 00:19:23;;;;;;;45.83;24.70;;;14.00;66.00;;;;;;6342619;22;20668;-92
2022/03/24 00:21:52;;;;;;;43.07;24.60;;;14.10;65.40;;;;;;6340831;22;20177;-93
2022/03/24 00:24:19;;;;;;;43.23;24.40;;;14.00;65.80;;;;;;6313994;22;20146;-91
2022/03/24 00:27:04;;;;;;;47.30;26.03;;;13.90;66.10;;;;;;6338709;22;20523;-92
2022/03/24 00:29:29;;;;;;;46.70;25.00;;;14.20;65.30;;;;;;6351963;22;20149;-90
2022/03/24 00:31:55;;;;;;;47.77;24.93;;;14.10;65.50;;;;;;6355151;22;20265;-92
2022/03/24 00:34:20;;;;;;;41.20;23.77;;;13.90;65.90;;;;;;6327838;22;20144;-92
2022/03/24 00:36:46;;;;;;;41.43;24.83;;;13.80;66.80;;;;;;6339986;22;20163;-86
2022/03/24 00:39:12;;;;;;;45.13;27.23;;;13.60;67.30;;;;;;6336725;22;20151;-86
2022/03/24 00:41:37;;;;;;;48.97;25.30;;;13.50;67.70;;;;;;6337341;22;20181;-86
2022/03/24 00:44:04;;;;;;;40.73;24.23;;;13.40;68.10;;;;;;6337567;22;20244;-87
2022/03/24 00:46:31;;;;;;;43.97;24.57;;;13.50;67.50;;;;;;6336898;22;20141;-86
2022/03/24 00:48:57;;;;;;;43.67;25.30;;;13.70;67.80;;;;;;6337745;22;20220;-86
2022/03/24 00:51:22;;;;;;;40.87;24.93;;;13.80;66.90;;;;;;6311615;22;20236;-86
2022/03/24 00:53:49;;;;;;;41.33;24.57;;;13.80;66.80;;;;;;6337368;22;20150;-86
2022/03/24 00:56:14;;;;;;;43.47;25.30;;;13.70;67.00;;;;;;6337557;22;20149;-86
2022/03/24 00:58:40;;;;;;;43.17;26.13;;;13.80;66.90;;;;;;6335268;22;20229;-86
2022/03/24 01:01:09;;;;;;;43.67;25.13;;;13.80;66.50;;;;;;6335597;22;20194;-86
2022/03/24 01:03:35;;;;;;;47.70;26.37;;;13.80;66.90;;;;;;6337747;22;20143;-86
2022/03/24 01:06:02;;;;;;;43.93;24.50;;;13.50;67.40;;;;;;6336972;22;20149;-86
2022/03/24 01:08:29;;;;;;;45.10;23.93;;;13.30;67.90;;;;;;6337179;22;20637;-87
2022/03/24 01:10:56;;;;;;;42.37;25.07;;;13.40;67.60;;;;;;6337539;22;20185;-87
2022/03/24 01:13:23;;;;;;;43.37;25.90;;;13.30;68.10;;;;;;6337467;22;20172;-87
2022/03/24 01:15:50;;;;;;;46.40;25.33;;;13.40;67.80;;;;;;6337804;22;20177;-87
2022/03/24 01:18:19;;;;;;;41.87;23.90;;;13.30;67.90;;;;;;6337654;22;20154;-87
2022/03/24 01:20:45;;;;;;;41.30;23.60;;;13.10;68.40;;;;;;6311352;22;20229;-87
2022/03/24 01:23:15;;;;;;;38.67;23.97;;;13.00;69.20;;;;;;6337166;22;20489;-87
2022/03/24 01:25:42;;;;;;;37.83;23.80;;;13.00;69.00;;;;;;6337511;22;20148;-87
2022/03/24 01:28:09;;;;;;;43.27;24.00;;;13.00;68.60;;;;;;6337984;22;20190;-87
2022/03/24 01:30:39;;;;;;;45.57;25.83;;;13.10;68.70;;;;;;6311463;22;20612;-87
2022/03/24 01:33:05;;;;;;;43.77;26.10;;;13.00;68.80;;;;;;6311510;22;20591;-87
2022/03/24 01:35:31;;;;;;;42.37;25.80;;;12.80;69.20;;;;;;6311297;22;20140;-87
2022/03/24 01:37:58;;;;;;;47.87;24.73;;;12.70;69.40;;;;;;6311222;22;20231;-87
2022/03/24 01:40:24;;;;;;;41.57;24.60;;;12.70;69.30;;;;;;6311229;22;20192;-87
2022/03/24 01:42:50;;;;;;;45.47;25.80;;;12.70;69.30;;;;;;6311297;22;20199;-87
2022/03/24 01:45:16;;;;;;;44.60;26.27;;;12.80;69.10;;;;;;6337257;22;20507;-87
2022/03/24 01:47:42;;;;;;;48.37;25.87;;;12.90;69.20;;;;;;6311591;22;20142;-87
2022/03/24 01:50:10;;;;;;;42.27;26.03;;;12.90;69.50;;;;;;6337330;22;20184;-87
2022/03/24 01:52:35;;;;;;;49.60;24.87;;;12.90;69.50;;;;;;6310871;22;20196;-87
2022/03/24 01:55:04;;;;;;;43.60;25.60;;;12.90;70.30;;;;;;6337186;22;20153;-87
2022/03/24 01:57:30;;;;;;;47.73;25.83;;;12.70;70.40;;;;;;6311402;22;20239;-87
2022/03/24 01:59:56;;;;;;;41.33;25.10;;;12.80;70.10;;;;;;6338627;22;20601;-87
2022/03/24 02:02:22;;;;;;;48.30;26.70;;;12.90;69.90;;;;;;6321947;22;20168;-87
2022/03/24 02:04:48;;;;;;;44.90;25.87;;;13.10;69.80;;;;;;6348047;22;20148;-87
2022/03/24 02:07:13;;;;;;;49.77;25.63;;;13.10;69.70;;;;;;6339340;22;20213;-87
2022/03/24 02:09:40;;;;;;;51.07;26.33;;;12.90;70.50;;;;;;6339240;22;20249;-86
2022/03/24 02:12:11;;;;;;;41.90;26.20;;;12.80;70.70;;;;;;6312666;22;20545;-87
2022/03/24 02:14:37;;;;;;;42.33;26.80;;;12.90;70.70;;;;;;6313101;22;20148;-87
2022/03/24 02:17:04;;;;;;;47.13;25.70;;;12.90;70.50;;;;;;6313104;22;20153;-87
2022/03/24 02:19:31;;;;;;;43.57;25.70;;;13.10;70.10;;;;;;6313107;22;20173;-87
2022/03/24 02:22:18;;;;;;;54.53;26.20;;;13.10;69.90;;;;;;6312672;22;20186;-87
2022/03/24 02:24:45;;;;;;;41.53;26.40;;;12.90;70.40;;;;;;6312313;22;20154;-88
2022/03/24 02:27:11;;;;;;;47.57;25.93;;;13.10;70.30;;;;;;6339007;22;20149;-87
2022/03/24 02:29:38;;;;;;;47.17;26.30;;;13.00;70.10;;;;;;6338786;22;20243;-87
2022/03/24 02:32:08;;;;;;;49.63;27.17;;;13.00;70.40;;;;;;6313044;22;20172;-87
2022/03/24 02:34:40;;;;;;;43.07;26.47;;;12.90;70.80;;;;;;6312489;22;20152;-87
2022/03/24 02:37:09;;;;;;;45.50;27.63;;;12.70;71.70;;;;;;6312771;22;20173;-87
2022/03/24 02:39:38;;;;;;;41.47;24.90;;;12.50;71.70;;;;;;6312892;22;20148;-87
2022/03/24 02:42:05;;;;;;;44.37;25.70;;;12.50;72.30;;;;;;6312885;22;20156;-87
2022/03/24 02:44:31;;;;;;;42.50;26.27;;;12.30;73.00;;;;;;6312841;22;20488;-87
2022/03/24 02:46:59;;;;;;;46.57;26.80;;;12.30;73.10;;;;;;6312419;22;20147;-87
2022/03/24 02:49:31;;;;;;;44.73;26.63;;;12.10;73.70;;;;;;6312319;22;20234;-87
2022/03/24 02:51:59;;;;;;;50.80;27.43;;;12.20;73.40;;;;;;6312479;22;20478;-87
2022/03/24 02:54:26;;;;;;;46.07;25.73;;;12.10;74.10;;;;;;6312591;22;20174;-87
2022/03/24 02:56:52;;;;;;;42.37;25.80;;;12.20;73.70;;;;;;6312607;22;20598;-87
2022/03/24 02:59:17;;;;;;;47.00;26.47;;;12.20;73.50;;;;;;6339204;22;20139;-87
2022/03/24 03:01:51;;;;;;;46.30;26.27;;;12.20;73.70;;;;;;6338477;22;20183;-87
2022/03/24 03:04:17;;;;;;;48.23;26.03;;;12.40;73.50;;;;;;6312475;22;20146;-86
2022/03/24 03:06:42;;;;;;;45.80;25.27;;;12.30;73.70;;;;;;6338831;22;20241;-87
2022/03/24 03:09:08;;;;;;;49.13;26.67;;;12.30;73.90;;;;;;6338738;22;20152;-86
2022/03/24 03:11:34;;;;;;;47.07;25.80;;;12.30;73.90;;;;;;6338342;22;20139;-87
2022/03/24 03:14:00;;;;;;;50.40;26.93;;;12.40;74.10;;;;;;6338647;22;20241;-87
2022/03/24 03:16:28;;;;;;;47.93;26.67;;;12.20;74.70;;;;;;6312560;22;20205;-87
2022/03/24 03:18:55;;;;;;;42.47;25.90;;;12.00;75.40;;;;;;6312241;22;20495;-87
2022/03/24 03:21:21;;;;;;;42.40;25.67;;;11.90;75.60;;;;;;6312224;22;20180;-87
2022/03/24 03:23:47;;;;;;;47.13;25.63;;;12.10;75.20;;;;;;6312480;22;20468;-87
2022/03/24 03:26:17;;;;;;;41.97;25.63;;;12.10;75.20;;;;;;6338299;22;20186;-87
2022/03/24 03:28:44;;;;;;;44.53;26.10;;;12.00;75.80;;;;;;6312162;22;20261;-86
2022/03/24 03:31:10;;;;;;;42.40;25.67;;;11.80;76.30;;;;;;6338152;22;20504;-87
2022/03/24 03:33:36;;;;;;;50.33;27.43;;;11.70;76.90;;;;;;6338275;22;20155;-86
2022/03/24 03:36:03;;;;;;;42.30;25.67;;;11.90;76.40;;;;;;6338521;22;20158;-86
2022/03/24 03:38:29;;;;;;;43.50;26.40;;;11.90;76.10;;;;;;6312383;22;20166;-87
2022/03/24 03:40:55;;;;;;;44.33;25.73;;;12.00;75.70;;;;;;6312107;22;20618;-87
2022/03/24 03:43:22;;;;;;;50.33;26.87;;;12.00;75.80;;;;;;6338109;22;20151;-87
2022/03/24 03:45:49;;;;;;;46.23;26.80;;;12.00;76.00;;;;;;6338314;22;20579;-87
2022/03/24 03:48:14;;;;;;;52.17;27.13;;;11.80;76.60;;;;;;6312047;22;20148;-87
2022/03/24 03:50:41;;;;;;;42.77;26.37;;;11.80;76.80;;;;;;6338781;22;20156;-87
2022/03/24 03:53:08;;;;;;;45.40;26.60;;;11.80;77.10;;;;;;6311900;22;20144;-87
2022/03/24 03:55:37;;;;;;;46.20;26.40;;;11.50;77.80;;;;;;6312162;22;20153;-87
2022/03/24 03:58:04;;;;;;;45.53;26.00;;;11.40;78.40;;;;;;6312235;22;20175;-88
2022/03/24 04:03:14;;;;;;;50.10;26.47;;;11.50;78.50;;;;;;6338940;22;20205;-87
2022/03/24 04:05:40;;;;;;;44.27;25.53;;;11.40;78.50;;;;;;6338305;22;20184;-87
2022/03/24 04:08:09;;;;;;;52.80;26.50;;;11.50;78.20;;;;;;6338300;22;20141;-87
2022/03/24 04:10:35;;;;;;;45.07;26.80;;;11.50;78.60;;;;;;6337974;22;20146;-88
2022/03/24 04:13:00;;;;;;;48.17;25.63;;;11.30;79.20;;;;;;6337762;22;20179;-87
2022/03/24 04:15:26;;;;;;;47.10;27.20;;;11.30;79.70;;;;;;6337948;22;20232;-87
2022/03/24 04:17:52;;;;;;;46.73;26.63;;;11.20;79.70;;;;;;6337594;22;20143;-86
2022/03/24 04:20:21;;;;;;;41.97;25.87;;;11.00;80.10;;;;;;6312015;22;20175;-87
2022/03/24 04:22:48;;;;;;;48.93;26.90;;;11.00;81.00;;;;;;6311365;22;20158;-86
2022/03/24 04:25:15;;;;;;;44.27;25.30;;;10.80;81.50;;;;;;6311895;22;20144;-87
2022/03/24 04:27:40;;;;;;;53.13;26.37;;;10.80;81.60;;;;;;6311721;22;20183;-87
2022/03/24 04:30:07;;;;;;;44.70;27.50;;;10.90;82.10;;;;;;6338017;22;20173;-87
2022/03/24 04:32:33;;;;;;;41.10;25.17;;;10.80;81.90;;;;;;6311444;22;20148;-87
2022/03/24 04:34:58;;;;;;;45.03;26.73;;;10.70;82.30;;;;;;6337951;22;20155;-87
2022/03/24 04:37:25;;;;;;;50.40;26.77;;;10.70;82.40;;;;;;6338154;22;20146;-87
2022/03/24 04:39:51;;;;;;;50.67;26.40;;;10.60;82.90;;;;;;6337660;22;20233;-86
2022/03/24 04:42:17;;;;;;;52.73;26.17;;;10.60;83.00;;;;;;6338052;22;20180;-87
2022/03/24 04:44:42;;;;;;;49.77;28.87;;;10.50;83.00;;;;;;6337902;22;20144;-87
2022/03/24 04:47:08;;;;;;;46.03;26.67;;;10.40;83.20;;;;;;6337691;22;20581;-87
2022/03/24 04:49:33;;;;;;;50.60;27.10;;;10.30;83.60;;;;;;6340504;22;20147;-87
2022/03/24 04:52:00;;;;;;;54.70;28.10;;;10.30;84.20;;;;;;6347587;22;20206;-87
2022/03/24 04:54:25;;;;;;;43.83;25.87;;;10.30;84.10;;;;;;6340541;22;20149;-87
2022/03/24 04:56:51;;;;;;;47.17;26.50;;;10.20;84.00;;;;;;6337936;22;20481;-87
2022/03/24 04:59:17;;;;;;;47.30;25.57;;;10.20;83.70;;;;;;6337135;22;20167;-87
2022/03/24 05:01:43;;;;;;;44.07;26.33;;;10.30;83.50;;;;;;6337789;22;20177;-87
2022/03/24 05:04:12;;;;;;;51.63;26.07;;;10.40;82.80;;;;;;6337729;22;20150;-86
2022/03/24 05:06:38;;;;;;;51.43;25.90;;;10.50;82.60;;;;;;6337438;22;20226;-86
2022/03/24 05:09:04;;;;;;;46.37;26.27;;;10.70;82.30;;;;;;6337460;22;20145;-86
2022/03/24 05:11:29;;;;;;;45.40;28.10;;;10.70;81.90;;;;;;6337554;22;20146;-87
2022/03/24 05:13:55;;;;;;;50.33;26.40;;;10.50;82.60;;;;;;6337056;22;20161;-86
2022/03/24 05:16:20;;;;;;;46.53;27.20;;;10.80;81.60;;;;;;6337609;22;20141;-86
2022/03/24 05:18:46;;;;;;;49.60;27.33;;;11.00;80.80;;;;;;6337727;22;20167;-86
2022/03/24 05:21:12;;;;;;;43.97;25.97;;;11.10;81.00;;;;;;6337661;22;20303;-87
2022/03/24 05:23:38;;;;;;;50.20;28.00;;;10.90;81.20;;;;;;6337566;22;20461;-86
2022/03/24 05:26:03;;;;;;;48.13;27.20;;;10.60;82.60;;;;;;6337709;22;20151;-87
2022/03/24 05:28:29;;;;;;;50.17;26.77;;;10.50;82.70;;;;;;6337754;22;20228;-89
2022/03/24 05:30:55;;;;;;;46.40;26.77;;;10.40;83.30;;;;;;6337610;22;20168;-88
2022/03/24 05:33:20;;;;;;;45.97;27.63;;;10.20;84.30;;;;;;6338648;22;20461;-89
2022/03/24 05:35:46;;;;;;;50.90;26.30;;;10.10;85.30;;;;;;6339237;22;20156;-88
2022/03/24 05:38:12;;;;;;;47.93;27.53;;;10.10;85.10;;;;;;6339958;22;20797;-88
2022/03/24 05:40:39;;;;;;;49.40;26.77;;;10.00;85.00;;;;;;6339288;22;20637;-89
2022/03/24 05:43:06;;;;;;;50.13;27.17;;;10.00;85.10;;;;;;6339204;22;20153;-88
2022/03/24 05:45:31;;;;;;;47.03;28.03;;;10.20;84.60;;;;;;6338459;22;20489;-89
2022/03/24 05:47:57;;;;;;;50.63;27.43;;;10.20;85.00;;;;;;6338507;22;20147;-88
2022/03/24 05:50:24;;;;;;;47.63;26.97;;;10.30;84.10;;;;;;6338351;22;20153;-87
2022/03/24 05:52:50;;;;;;;42.97;27.30;;;10.40;84.10;;;;;;6338736;22;20142;-87
2022/03/24 05:55:19;;;;;;;48.40;27.20;;;10.20;85.00;;;;;;6312264;22;20176;-88
2022/03/24 05:57:45;;;;;;;53.73;27.37;;;10.10;85.20;;;;;;6338291;22;20195;-88
2022/03/24 06:00:12;;;;;;;42.47;26.33;;;10.20;85.10;;;;;;6339068;22;20174;-87
2022/03/24 06:02:38;;;;;;;56.27;27.43;;;10.30;84.40;;;;;;6312965;22;20605;-88
2022/03/24 06:05:12;;;;;;;53.53;26.30;;;10.40;84.40;;;;;;6313012;22;20224;-87
2022/03/24 06:07:40;;;;;;;45.27;26.77;;;10.40;84.60;;;;;;6313041;22;20149;-87
2022/03/24 06:10:08;;;;;;;43.97;25.40;;;10.50;84.40;;;;;;6339304;22;20455;-87
2022/03/24 06:12:35;;;;;;;49.47;27.03;;;10.40;84.90;;;;;;6312624;22;20182;-87
2022/03/24 06:15:01;;;;;;;47.37;28.30;;;10.40;85.10;;;;;;6313151;22;20149;-87
2022/03/24 06:17:27;;;;;;;50.73;28.57;;;10.40;85.50;;;;;;6338978;22;20155;-87
2022/03/24 06:19:53;;;;;;;51.83;27.90;;;10.30;85.80;;;;;;6338803;22;20499;-87
2022/03/24 06:22:19;;;;;;;53.97;27.63;;;10.50;85.40;;;;;;6339041;22;20234;-86
2022/03/24 06:25:03;;;;;;;48.80;27.03;;;10.40;86.10;;;;;;6343871;22;20610;-92
2022/03/24 06:27:32;;;;;;;51.63;27.60;;;10.40;86.70;;;;;;6340213;22;20251;-92
2022/03/24 06:30:03;;;;;;;57.13;28.87;;;10.40;86.40;;;;;;6339720;22;20222;-93
2022/03/24 06:32:36;;;;;;;51.20;27.63;;;10.50;86.60;;;;;;6313893;22;20195;-93
2022/03/24 06:35:05;;;;;;;48.00;28.50;;;10.50;87.00;;;;;;6313290;22;20182;-93
2022/03/24 06:37:39;;;;;;;51.43;28.40;;;10.50;86.90;;;;;;6313337;22;20224;-93
2022/03/24 06:40:09;;;;;;;48.17;28.00;;;10.50;87.20;;;;;;6313636;22;20193;-93
2022/03/24 06:42:37;;;;;;;53.77;27.63;;;10.40;87.60;;;;;;6313840;22;20152;-93
2022/03/24 06:45:04;;;;;;;51.33;28.10;;;10.40;87.40;;;;;;6313350;22;20138;-93
2022/03/24 06:47:33;;;;;;;67.87;30.60;;;10.70;86.60;;;;;;6313566;22;20146;-93
2022/03/24 06:50:00;;;;;;;57.37;30.00;;;10.70;86.90;;;;;;6341200;22;20137;-92
2022/03/24 06:52:28;;;;;;;52.97;28.93;;;10.70;86.00;;;;;;6339335;22;20160;-93
2022/03/24 06:54:54;;;;;;;50.57;28.87;;;10.80;86.50;;;;;;6313755;22;20147;-91
2022/03/24 06:57:26;;;;;;;52.17;28.80;;;10.90;86.10;;;;;;6339614;22;20454;-92
2022/03/24 06:59:52;;;;;;;57.60;29.77;;;10.90;86.10;;;;;;6314934;22;20256;-93
2022/03/24 07:02:20;;;;;;;57.83;30.13;;;11.00;85.50;;;;;;6339668;22;20149;-94
2022/03/24 07:08:53;;;;;;;;;;;;;;;;;;;;;
2022/03/24 07:28:38;;;;;;;71.77;39.90;;;11.30;83.20;;;;;;6277193;22;20227;-94
2022/03/24 07:31:59;;;;;;;71.57;39.83;;;11.50;79.30;;;;;;6257079;22;20603;-95
2022/03/24 08:12:42;;;;;;;77.70;42.50;;;13.30;70.30;;;;;;6338559;22;20270;-93
2022/03/24 08:15:08;;;;;;;84.90;44.47;;;13.30;70.10;;;;;;6314232;22;20143;-91
2022/03/24 08:18:36;;;;;;;94.37;44.53;;;13.40;69.60;;;;;;6313461;22;20152;-93
2022/03/24 08:27:49;;;;;;;84.33;43.83;;;13.60;69.20;;;;;;6340905;22;20201;-93
2022/03/24 08:34:50;;;;;;;82.27;43.33;;;13.90;68.50;;;;;;6196905;23;20152;-93
2022/03/24 08:41:15;;;;;;;;;;;;;;;;;;;;;
2022/03/24 09:07:38;;;;;;;95.43;45.00;;;15.20;65.50;;;;;;6340926;22;20229;-94
2022/03/24 09:10:15;;;;;;;86.13;43.83;;;15.20;66.30;;;;;;6338480;22;20577;-93
2022/03/24 09:16:42;;;;;;;97.17;47.30;;;15.50;64.90;;;;;;6294995;22;20203;-93
2022/03/24 09:26:14;;;;;;;90.83;44.47;;;15.60;64.70;;;;;;6214524;23;20506;-95
2022/03/24 09:29:27;;;;;;;;;;;;;;;;;;;;;
2022/03/24 09:35:12;;;;;;;86.40;40.43;;;15.80;62.80;;;;;;6145522;23;20242;-90
2022/03/24 09:38:07;;;;;;;78.87;40.63;;;15.90;61.90;;;;;;6309391;22;20160;-93
2022/03/24 09:43:58;;;;;;;68.33;37.17;;;16.10;61.20;;;;;;6337609;22;20557;-94
2022/03/24 09:47:01;;;;;;;68.30;35.17;;;16.10;61.20;;;;;;6312211;22;20153;-93
2022/03/24 09:50:10;;;;;;;68.23;35.83;;;16.40;59.30;;;;;;6338648;22;20149;-94
2022/03/24 11:05:44;;;;;;;51.83;28.93;;;20.50;51.20;;;;;;6294349;22;20208;-85
2022/03/24 11:08:14;;;;;;;46.73;29.97;;;21.60;49.60;;;;;;6339281;22;20164;-84
2022/03/24 11:10:48;;;;;;;44.77;28.13;;;22.70;48.90;;;;;;6310706;22;20570;-84
2022/03/24 11:13:25;;;;;;;51.17;31.87;;;23.70;46.70;;;;;;6338118;22;20133;-84
2022/03/24 11:15:52;;;;;;;46.53;30.43;;;24.40;46.20;;;;;;6310902;22;20223;-85
2022/03/24 11:18:21;;;;;;;40.13;25.10;;;25.20;45.00;;;;;;6310562;22;20149;-85
2022/03/24 11:20:49;;;;;;;34.37;23.17;;;25.80;43.20;;;;;;6338536;22;20173;-85
2022/03/24 11:23:22;;;;;;;36.10;23.60;;;26.30;42.60;;;;;;6310281;22;20141;-84
2022/03/24 11:25:53;;;;;;;43.53;28.43;;;26.20;42.30;;;;;;6338578;22;20499;-85
2022/03/24 11:28:21;;;;;;;39.13;26.70;;;27.10;42.90;;;;;;6336242;22;20149;-85
2022/03/24 11:30:48;;;;;;;37.30;27.30;;;27.60;41.90;;;;;;6335849;22;20142;-86
2022/03/24 11:33:14;;;;;;;43.05;28.17;;;28.10;42.20;;;;;;6310503;22;20152;-85
2022/03/24 11:35:40;;;;;;;42.88;28.70;;;28.40;40.90;;;;;;6337083;22;20149;-85
2022/03/24 11:38:06;;;;;;;43.58;31.67;;;28.40;41.40;;;;;;6336733;22;20145;-85
2022/03/24 11:40:34;;;;;;;42.22;31.00;;;28.90;42.30;;;;;;6311066;22;20419;-85
2022/03/24 11:43:03;;;;;;;42.45;31.15;;;29.50;41.10;;;;;;6310488;22;20450;-85
2022/03/24 11:45:49;;;;;;;43.65;33.47;;;29.90;40.70;;;;;;6310193;22;20145;-85
2022/03/24 11:48:17;;;;;;;45.45;33.03;;;30.20;41.50;;;;;;6337607;22;20137;-86
2022/03/24 11:50:48;;;;;;;44.92;33.95;;;30.40;41.10;;;;;;6310681;22;20161;-86
2022/03/24 11:53:18;;;;;;;47.78;35.05;;;30.30;41.60;;;;;;6310502;22;20145;-85
2022/03/24 11:55:59;;;;;;;45.97;34.88;;;30.70;41.00;;;;;;6311172;22;20235;-86
2022/03/24 11:58:25;;;;;;;43.88;33.30;;;30.80;40.60;;;;;;6310841;22;20589;-87
2022/03/24 12:00:51;;;;;;;45.42;33.83;;;31.00;40.40;;;;;;6310653;22;20181;-86
2022/03/24 12:03:40;;;;;;;41.88;30.63;;;31.00;40.30;;;;;;6336607;22;20252;-86
2022/03/24 12:06:06;;;;;;;41.33;30.75;;;31.10;40.20;;;;;;6310697;22;20183;-86
2022/03/24 12:08:44;;;;;;;37.35;27.13;;;31.10;40.70;;;;;;6310508;22;20149;-86
2022/03/24 12:11:46;;;;;;;34.28;26.45;;;31.60;38.60;;;;;;6310946;22;20609;-86
2022/03/24 12:14:16;;;;;;;33.42;25.95;;;31.90;38.30;;;;;;6246215;22;20160;-86
2022/03/24 12:16:47;;;;;;;34.13;26.02;;;32.10;38.20;;;;;;6310717;22;20137;-86
2022/03/24 12:20:03;;;;;;;35.83;26.98;;;32.50;38.30;;;;;;6310577;22;20222;-86
2022/03/24 12:22:32;;;;;;;37.03;27.08;;;32.60;38.30;;;;;;6242717;22;20210;-86
2022/03/24 12:25:01;;;;;;;33.28;26.00;;;33.30;37.50;;;;;;6338256;22;20142;-86
2022/03/24 12:27:26;;;;;;;34.58;26.50;;;33.50;37.40;;;;;;6310204;22;20146;-86
2022/03/24 12:30:13;;;;;;;33.65;25.10;;;33.40;36.90;;;;;;6309805;22;20157;-86
2022/03/24 12:32:40;;;;;;;31.48;23.95;;;33.30;36.80;;;;;;6310440;22;20194;-86
2022/03/24 12:35:07;;;;;;;35.33;25.83;;;32.80;36.80;;;;;;6310452;22;20186;-85
2022/03/24 12:37:32;;;;;;;31.17;24.63;;;32.40;37.50;;;;;;6310745;22;20592;-86
2022/03/24 12:40:08;;;;;;;30.67;24.35;;;32.90;37.40;;;;;;6309233;22;20141;-86
2022/03/24 12:42:43;;;;;;;30.45;23.77;;;33.60;37.00;;;;;;6310492;22;20206;-86
2022/03/24 12:45:10;;;;;;;28.95;24.05;;;33.20;36.80;;;;;;6310609;22;20151;-86
2022/03/24 12:47:44;;;;;;;26.45;22.92;;;33.40;36.50;;;;;;6310962;22;20452;-86
2022/03/24 12:50:42;;;;;;;31.88;24.60;;;33.90;36.90;;;;;;6309833;22;20138;-86
2022/03/24 12:53:08;;;;;;;36.25;24.48;;;34.10;36.60;;;;;;6309901;22;20523;-87
2022/03/24 12:55:35;;;;;;;35.08;24.90;;;34.70;35.80;;;;;;6310102;22;20145;-87
2022/03/24 12:58:11;;;;;;;34.50;25.60;;;35.10;35.40;;;;;;6311026;22;20578;-86
2022/03/24 13:00:42;;;;;;;30.65;24.45;;;34.90;35.60;;;;;;6310968;22;20177;-85
2022/03/24 13:03:09;;;;;;;32.25;24.88;;;34.80;35.70;;;;;;6310883;22;20249;-84
2022/03/24 13:05:36;;;;;;;30.33;24.30;;;35.00;36.10;;;;;;6310692;22;20169;-86
2022/03/24 13:08:05;;;;;;;28.75;23.65;;;34.70;35.70;;;;;;6310972;22;20570;-87
2022/03/24 13:10:32;;;;;;;33.53;25.13;;;34.90;35.80;;;;;;6338069;22;20130;-87
2022/03/24 13:13:00;;;;;;;34.33;24.10;;;34.80;35.40;;;;;;6309905;22;20173;-86
2022/03/24 13:15:30;;;;;;;29.95;23.80;;;34.80;35.70;;;;;;6338216;22;20180;-85
2022/03/24 13:18:01;;;;;;;34.08;24.05;;;34.60;36.00;;;;;;6338541;22;20216;-87
2022/03/24 13:20:29;;;;;;;33.70;25.10;;;35.40;35.50;;;;;;6338214;22;20161;-87
2022/03/24 13:23:01;;;;;;;30.75;23.65;;;35.10;35.80;;;;;;6338538;22;20200;-87
2022/03/24 13:25:26;;;;;;;30.02;23.70;;;35.20;35.70;;;;;;6310694;22;20149;-87
2022/03/24 13:27:54;;;;;;;28.42;23.50;;;35.70;34.90;;;;;;6336507;22;20183;-87
2022/03/24 13:30:29;;;;;;;30.95;23.67;;;35.60;35.10;;;;;;6310534;22;20270;-86
2022/03/24 13:33:02;;;;;;;34.75;24.80;;;35.90;35.10;;;;;;6311019;22;20143;-86
2022/03/24 13:35:35;;;;;;;34.40;24.55;;;35.30;35.00;;;;;;6309641;22;20149;-86
2022/03/24 13:38:03;;;;;;;29.35;22.98;;;35.10;34.70;;;;;;6311353;22;20198;-87
2022/03/24 13:40:37;;;;;;;31.98;23.92;;;34.90;34.90;;;;;;6310755;22;20184;-87
2022/03/24 13:43:04;;;;;;;29.10;23.30;;;34.90;35.40;;;;;;6310704;22;20151;-87
2022/03/24 13:45:31;;;;;;;28.55;22.17;;;34.70;34.90;;;;;;6310724;22;20138;-87
2022/03/24 13:48:08;;;;;;;30.63;22.70;;;34.70;35.40;;;;;;6310930;22;20145;-87
2022/03/24 13:50:35;;;;;;;31.08;23.48;;;35.10;34.90;;;;;;6310701;22;20140;-87
2022/03/24 13:53:20;;;;;;;29.67;22.80;;;35.10;35.30;;;;;;6338986;22;20140;-86
2022/03/24 13:55:48;;;;;;;33.40;23.88;;;35.40;35.10;;;;;;6312392;22;20680;-87
2022/03/24 13:58:17;;;;;;;31.77;23.05;;;35.60;34.90;;;;;;6312850;22;20589;-86
2022/03/24 14:00:48;;;;;;;33.05;24.02;;;35.50;35.20;;;;;;6312432;22;20187;-86
2022/03/24 14:03:17;;;;;;;34.05;24.60;;;35.50;34.90;;;;;;6312638;22;20145;-86
2022/03/24 14:05:53;;;;;;;30.33;23.80;;;35.40;34.80;;;;;;6312443;22;20176;-86
2022/03/24 14:08:31;;;;;;;32.25;22.52;;;35.10;35.40;;;;;;6312558;22;20569;-88
2022/03/24 14:10:59;;;;;;;34.88;24.30;;;35.30;35.20;;;;;;6312170;22;20184;-87
2022/03/24 14:13:31;;;;;;;33.67;23.45;;;35.40;35.00;;;;;;6340241;22;20163;-87
2022/03/24 14:16:13;;;;;;;31.58;23.83;;;34.30;35.20;;;;;;6312247;22;20525;-86
2022/03/24 14:19:01;;;;;;;35.05;24.58;;;34.20;35.50;;;;;;6340179;22;20125;-87
2022/03/24 14:21:27;;;;;;;31.50;23.25;;;34.30;35.00;;;;;;6312125;22;20189;-86
2022/03/24 14:23:52;;;;;;;30.83;23.45;;;34.30;34.90;;;;;;6338696;22;20181;-86
2022/03/24 14:26:18;;;;;;;34.78;23.75;;;34.60;35.50;;;;;;6339591;22;20129;-86
2022/03/24 14:28:45;;;;;;;28.90;23.30;;;34.90;35.60;;;;;;6338466;22;20145;-86
2022/03/24 14:31:16;;;;;;;33.67;23.60;;;35.10;35.00;;;;;;6312273;22;20242;-86
2022/03/24 14:33:46;;;;;;;28.08;22.30;;;35.10;35.20;;;;;;6339853;22;20150;-87
2022/03/24 14:36:12;;;;;;;31.80;22.65;;;35.20;35.50;;;;;;6312097;22;20600;-86
2022/03/24 14:38:38;;;;;;;32.00;22.67;;;35.00;35.10;;;;;;6312742;22;20211;-86
2022/03/24 14:41:04;;;;;;;34.60;22.95;;;35.10;34.80;;;;;;6311871;22;20613;-86
2022/03/24 14:43:31;;;;;;;32.92;21.88;;;35.30;34.90;;;;;;6338362;22;20224;-85
2022/03/24 14:45:57;;;;;;;25.83;19.50;;;35.60;34.70;;;;;;6338596;22;20195;-85
2022/03/24 14:48:24;;;;;;;29.60;21.50;;;35.30;35.30;;;;;;6312143;22;20149;-86
2022/03/24 14:50:52;;;;;;;24.65;20.45;;;35.40;35.10;;;;;;6338101;22;20145;-86
2022/03/24 14:53:18;;;;;;;25.02;19.63;;;35.90;34.90;;;;;;6338066;22;20228;-86
2022/03/24 14:55:44;;;;;;;31.20;20.15;;;36.00;35.20;;;;;;6337761;22;20173;-86
2022/03/24 14:58:10;;;;;;;27.10;19.20;;;35.90;35.00;;;;;;6338377;22;20145;-86
2022/03/24 15:00:36;;;;;;;26.13;19.55;;;35.70;34.90;;;;;;6311951;22;20176;-87
2022/03/24 19:23:27;;;;;;;30.00;18.27;;;19.80;52.70;;;;;;6318417;22;20201;-91
2022/03/24 20:00:11;;;;;;;31.77;17.17;;;18.50;55.90;;;;;;6297774;22;20198;-90
2022/03/24 20:02:40;;;;;;;32.90;16.87;;;18.60;56.00;;;;;;6282491;22;20178;-94
2022/03/24 20:05:06;;;;;;;32.93;18.27;;;18.40;56.40;;;;;;6309516;22;20200;-94
2022/03/24 20:07:32;;;;;;;34.23;17.93;;;18.30;56.70;;;;;;6282669;22;20619;-94
2022/03/24 20:09:58;;;;;;;33.30;17.10;;;18.30;56.80;;;;;;6281970;22;20154;-93
2022/03/24 20:12:24;;;;;;;35.47;17.53;;;18.30;57.10;;;;;;6281948;22;20158;-93
2022/03/24 20:14:50;;;;;;;33.60;18.37;;;18.30;57.30;;;;;;6282343;22;20486;-93
2022/03/24 20:17:16;;;;;;;32.57;17.27;;;18.10;57.40;;;;;;6282607;22;20151;-93
2022/03/24 20:19:41;;;;;;;46.00;24.00;;;18.00;58.60;;;;;;6282433;22;20590;-93
2022/03/24 20:22:07;;;;;;;39.67;21.20;;;18.10;57.80;;;;;;6282145;22;20197;-94
2022/03/24 20:24:34;;;;;;;31.83;18.07;;;18.00;58.20;;;;;;6281801;22;20152;-92
2022/03/24 20:26:59;;;;;;;32.20;18.13;;;18.00;57.90;;;;;;6282625;22;20165;-94
2022/03/24 20:29:26;;;;;;;38.80;17.93;;;18.00;58.00;;;;;;6281977;22;20160;-94
2022/03/24 20:31:52;;;;;;;37.93;18.70;;;18.00;58.20;;;;;;6282071;22;20153;-93
2022/03/24 20:34:18;;;;;;;35.63;19.07;;;17.80;58.50;;;;;;6283041;22;20159;-94
2022/03/24 20:36:44;;;;;;;39.40;18.67;;;17.80;58.90;;;;;;6282597;22;20143;-94
2022/03/24 20:39:10;;;;;;;34.50;18.07;;;17.90;59.00;;;;;;6282428;22;20156;-94
2022/03/24 20:41:35;;;;;;;36.97;18.87;;;17.60;59.30;;;;;;6281949;22;20516;-93
2022/03/24 20:44:01;;;;;;;38.70;18.20;;;17.50;59.60;;;;;;6282162;22;20201;-93
2022/03/24 20:46:30;;;;;;;33.50;17.83;;;17.40;60.00;;;;;;6282378;22;20160;-95
2022/03/24 20:48:56;;;;;;;39.07;18.43;;;17.40;60.30;;;;;;6282033;22;20186;-93